Portada
METAR-TAF:

METAR-TAF

Aeroports :

Lord Howe Island, Austràlia

latitud: 31-32-18S, longitud: 159-04-38E, altitud: 5 m

Observació

L'informe es va fer fa 32 minuts, a les 17:30 UTC
Vent 5 kt del Sud/Sud-Oest
Temperatura 18°C
Humitat 77%
Pressió 1017 hPa
Visibilitat 10 km o més
Cel ennuvolat a una alçada de 9500 ft

METAR: YLHI 171730Z AUTO 21005KT 9999 // BKN095 18/14 Q1017 RF00.0/000.0

Hora: 04:02 (18:02 UTC)

Pronòstic

L'informe es va fer fa 1 hora i 0 minuts, a les 17:02 UTC
Pronòstic vàlid del 17 a les 18 UTC al 18 a les 18 UTC
Vent 5 kt del Oest/Sud-Oest
Visibilitat 10 km o més
Núvols disperses a una alçada de 3000 ft
A partir de les 18 a les 1400 UTC
Vent 14 kt del Oest/Sud-Oest
Visibilitat 10 km o més
Cel ennuvolat a una alçada de 2500 ft
xàfecs de pluja

TAF: YLHI 171702Z 1718/1818 24005KT 9999 SCT030 FM181400 24014KT 9999 -SHRA BKN025

Observacions i pronòstics meteorològics de més de 4000 aeroports (METAR i TAF).

Les estacions disponibles són els punts grocs i vermells al mapa.

Posi el ratolí al punt desitjat per veure el nom de l'estació.

Feu clic per veure les observacions i els pronòstics meteorològics.

Per canviar el mapa: feu clic els botons verds amb una creu de color negre per apropar; al botó verd amb un guió per allunyar la imatge; o en les fletxes verdes per a mapes adjacents.


METAR-TAF: